createdAt,value
2018-08-27T00:00:17.794Z,58.70
2018-08-27T00:02:49.366Z,58.40
2018-08-27T00:05:21.187Z,57.90
2018-08-27T00:07:52.427Z,57.70
2018-08-27T00:10:25.426Z,57.80
2018-08-27T00:12:57.766Z,58.10
2018-08-27T00:15:29.189Z,58.00
2018-08-27T00:18:01.294Z,58.00
2018-08-27T00:20:33.786Z,57.50
2018-08-27T00:23:06.087Z,57.50
2018-08-27T00:25:38.167Z,57.50
2018-08-27T00:28:10.469Z,57.20
2018-08-27T00:30:41.867Z,57.00
2018-08-27T00:33:14.226Z,56.50
2018-08-27T00:35:46.106Z,56.70
2018-08-27T00:38:18.226Z,56.40
2018-08-27T00:40:50.126Z,56.30
2018-08-27T00:43:22.365Z,56.60
2018-08-27T00:45:53.846Z,56.80
2018-08-27T00:48:26.706Z,56.60
2018-08-27T00:50:58.906Z,56.50
2018-08-27T00:53:30.846Z,56.90
2018-08-27T00:56:02.447Z,57.10
2018-08-27T00:58:34.186Z,57.20
2018-08-27T01:01:06.647Z,57.40
2018-08-27T01:03:38.386Z,57.40
2018-08-27T01:06:09.426Z,57.80
2018-08-27T01:08:41.586Z,57.50
2018-08-27T01:11:13.366Z,57.80
2018-08-27T01:13:44.906Z,57.50
2018-08-27T01:16:16.907Z,57.40
2018-08-27T01:18:47.837Z,57.40
2018-08-27T01:21:19.836Z,57.20
2018-08-27T01:23:51.537Z,57.30
2018-08-27T01:26:23.880Z,57.00
2018-08-27T01:28:55.678Z,57.00
2018-08-27T01:31:27.776Z,57.10
2018-08-27T01:33:59.517Z,57.00
2018-08-27T01:36:31.356Z,56.90
2018-08-27T01:39:02.736Z,57.10
2018-08-27T01:41:34.497Z,57.50
2018-08-27T01:44:06.556Z,57.90
2018-08-27T01:46:37.737Z,57.30
2018-08-27T01:49:09.919Z,56.70
2018-08-27T01:51:41.416Z,56.30
2018-08-27T01:54:12.956Z,56.60
2018-08-27T01:56:45.076Z,56.40
2018-08-27T01:59:16.737Z,56.70
2018-08-27T02:01:49.597Z,56.60
2018-08-27T02:04:22.037Z,56.90
2018-08-27T02:06:57.519Z,56.80
2018-08-27T02:09:30.397Z,56.70
2018-08-27T02:12:02.880Z,56.90
2018-08-27T02:14:34.597Z,57.10
2018-08-27T02:17:07.816Z,56.60
2018-08-27T02:19:39.578Z,56.50
2018-08-27T02:22:12.317Z,57.10
2018-08-27T02:24:44.497Z,57.30
2018-08-27T02:27:15.877Z,56.50
2018-08-27T02:29:47.841Z,55.50
2018-08-27T02:32:20.011Z,55.50
2018-08-27T02:34:50.938Z,55.00
2018-08-27T02:37:22.539Z,54.90
2018-08-27T02:39:54.917Z,55.30
2018-08-27T02:42:27.337Z,54.60
2018-08-27T02:44:59.057Z,54.50
2018-08-27T02:47:30.997Z,54.30
2018-08-27T02:50:02.377Z,53.70
2018-08-27T02:52:33.857Z,53.10
2018-08-27T02:55:06.117Z,52.10
2018-08-27T02:57:38.218Z,53.60
2018-08-27T03:00:09.337Z,51.70
2018-08-27T03:02:41.217Z,52.00
2018-08-27T03:05:13.497Z,51.10
2018-08-27T03:07:44.797Z,49.70
2018-08-27T03:10:16.557Z,50.00
2018-08-27T03:12:48.336Z,49.00
2018-08-27T03:15:19.697Z,48.90
2018-08-27T03:17:51.417Z,49.30
2018-08-27T03:20:23.036Z,49.70
2018-08-27T03:22:54.781Z,49.30
2018-08-27T03:25:26.717Z,48.70
2018-08-27T03:27:59.377Z,47.80
2018-08-27T03:30:30.817Z,48.00
2018-08-27T03:33:03.077Z,48.20
2018-08-27T03:35:34.516Z,47.90
2018-08-27T03:38:06.396Z,48.40
2018-08-27T03:40:37.800Z,47.00
2018-08-27T03:43:10.117Z,47.10
2018-08-27T03:45:42.097Z,47.10
2018-08-27T03:48:13.959Z,47.70
2018-08-27T03:50:45.218Z,48.80
2018-08-27T03:53:17.116Z,47.90
2018-08-27T03:55:48.897Z,48.40
2018-08-27T03:58:20.717Z,49.00
2018-08-27T04:00:52.696Z,49.00
2018-08-27T04:03:24.716Z,49.80
2018-08-27T04:05:57.178Z,49.60
2018-08-27T04:08:28.657Z,49.20
2018-08-27T04:10:59.837Z,49.60
2018-08-27T04:13:32.256Z,50.70
2018-08-27T04:16:04.577Z,49.80
2018-08-27T04:18:35.837Z,48.70
2018-08-27T04:21:07.177Z,48.20
2018-08-27T04:23:38.817Z,49.10
2018-08-27T04:26:10.618Z,48.70
2018-08-27T04:28:42.080Z,48.30
2018-08-27T04:31:13.976Z,47.30
2018-08-27T04:33:45.297Z,47.10
2018-08-27T04:36:17.236Z,47.20
2018-08-27T04:38:48.637Z,45.40
2018-08-27T04:41:20.577Z,44.60
2018-08-27T04:43:52.437Z,43.90
2018-08-27T04:46:24.160Z,43.80
2018-08-27T04:48:56.156Z,43.70
2018-08-27T04:51:28.617Z,43.40
2018-08-27T04:54:00.157Z,43.40
2018-08-27T04:56:31.717Z,43.20
2018-08-27T04:59:07.317Z,43.20
2018-08-27T05:01:39.097Z,43.20
2018-08-27T05:04:11.080Z,43.40
2018-08-27T05:06:43.317Z,43.40
2018-08-27T05:09:15.357Z,43.20
2018-08-27T05:11:47.237Z,43.20
2018-08-27T05:14:18.818Z,43.30
2018-08-27T05:16:50.300Z,43.20
2018-08-27T05:19:22.117Z,43.30
2018-08-27T05:21:54.457Z,43.50
2018-08-27T05:24:26.117Z,43.70
2018-08-27T05:26:58.398Z,43.90
2018-08-27T05:29:30.177Z,44.40
2018-08-27T05:32:02.517Z,44.10
2018-08-27T05:34:35.277Z,44.70
2018-08-27T05:37:06.717Z,44.70
2018-08-27T05:39:39.477Z,45.40
2018-08-27T05:42:11.978Z,46.00
2018-08-27T05:44:44.157Z,46.80
2018-08-27T05:47:16.660Z,48.40
2018-08-27T05:49:48.779Z,49.00
2018-08-27T05:52:20.807Z,49.40
2018-08-27T05:54:52.738Z,49.90
2018-08-27T05:57:23.817Z,49.90
2018-08-27T05:59:55.956Z,48.70
2018-08-27T06:02:27.857Z,48.30
2018-08-27T06:04:59.877Z,47.70
2018-08-27T06:07:31.677Z,48.10
2018-08-27T06:10:03.977Z,48.60
2018-08-27T06:12:35.597Z,48.30
2018-08-27T06:15:08.636Z,48.40
2018-08-27T06:17:40.916Z,48.30
2018-08-27T06:20:12.797Z,48.70
2018-08-27T06:22:44.858Z,48.10
2018-08-27T06:25:16.857Z,47.60
2018-08-27T06:27:48.817Z,46.80
2018-08-27T06:30:20.797Z,47.80
2018-08-27T06:32:52.577Z,48.40
2018-08-27T06:35:25.037Z,48.30
2018-08-27T06:37:57.411Z,49.00
2018-08-27T06:40:29.158Z,47.70
2018-08-27T06:43:00.783Z,46.70
2018-08-27T06:45:32.697Z,46.50
2018-08-27T06:48:04.658Z,45.70
2018-08-27T06:50:36.637Z,44.50
2018-08-27T06:53:08.776Z,43.50
2018-08-27T06:55:40.856Z,43.50
2018-08-27T06:58:12.738Z,42.70
2018-08-27T07:00:43.960Z,41.50
2018-08-27T07:03:15.837Z,41.60
2018-08-27T07:05:47.357Z,41.70
2018-08-27T07:08:18.856Z,40.60
2018-08-27T07:10:49.057Z,41.20
2018-08-27T07:13:21.037Z,41.20
2018-08-27T07:15:53.117Z,42.30
2018-08-27T07:18:26.159Z,42.60
2018-08-27T07:20:58.017Z,43.60
2018-08-27T07:23:30.263Z,43.40
2018-08-27T07:26:02.057Z,42.80
2018-08-27T07:28:33.397Z,41.20
2018-08-27T07:31:06.197Z,40.20
2018-08-27T07:33:37.497Z,39.90
2018-08-27T07:36:09.779Z,39.80
2018-08-27T07:38:41.117Z,40.30
2018-08-27T07:41:13.138Z,39.70
2018-08-27T07:43:45.317Z,40.20
2018-08-27T07:46:17.397Z,40.60
2018-08-27T07:48:49.337Z,40.90
2018-08-27T07:51:20.997Z,41.10
2018-08-27T07:53:53.216Z,41.20
2018-08-27T07:56:25.117Z,40.80
2018-08-27T07:58:57.596Z,41.60
2018-08-27T08:01:29.017Z,41.40
2018-08-27T08:04:01.297Z,41.30
2018-08-27T08:06:32.676Z,41.40
2018-08-27T08:09:05.917Z,42.00
2018-08-27T08:11:38.177Z,42.10
2018-08-27T08:14:10.437Z,42.10
2018-08-27T08:16:41.338Z,42.00
2018-08-27T08:19:12.682Z,41.40
2018-08-27T08:21:44.478Z,41.40
2018-08-27T08:24:16.540Z,41.40
2018-08-27T08:26:49.302Z,41.40
2018-08-27T08:29:21.439Z,41.10
2018-08-27T08:31:52.659Z,41.20
2018-08-27T08:34:24.819Z,41.00
2018-08-27T08:36:56.359Z,40.80
2018-08-27T08:39:27.964Z,40.30
2018-08-27T08:41:59.871Z,40.30
2018-08-27T08:44:30.946Z,40.60
2018-08-27T08:47:03.541Z,39.80
2018-08-27T08:49:35.459Z,39.50
2018-08-27T08:52:08.740Z,39.90
2018-08-27T08:54:40.339Z,40.60
2018-08-27T08:57:12.282Z,40.50
2018-08-27T08:59:44.298Z,39.50
2018-08-27T09:02:16.186Z,38.60
2018-08-27T09:04:47.927Z,39.50
2018-08-27T09:07:19.548Z,39.40
2018-08-27T09:09:51.907Z,38.20
2018-08-27T09:12:24.366Z,38.20
2018-08-27T09:14:55.729Z,36.90
2018-08-27T09:17:27.346Z,37.10
2018-08-27T09:19:58.053Z,36.90
2018-08-27T09:22:30.127Z,36.70
2018-08-27T09:25:02.447Z,37.00
2018-08-27T09:27:34.606Z,36.50
2018-08-27T09:30:06.227Z,36.80
2018-08-27T09:32:38.546Z,36.70
2018-08-27T09:35:10.209Z,37.70
2018-08-27T09:37:42.671Z,36.80
2018-08-27T09:40:15.326Z,36.80
2018-08-27T09:42:46.586Z,36.70
2018-08-27T09:45:19.107Z,36.70
2018-08-27T09:47:51.028Z,36.80
2018-08-27T09:50:23.347Z,36.30
2018-08-27T09:52:55.037Z,36.50
2018-08-27T09:55:27.047Z,36.10
2018-08-27T09:57:58.706Z,35.00
2018-08-27T10:00:34.887Z,35.20
2018-08-27T10:03:06.866Z,35.30
2018-08-27T10:05:39.669Z,34.30
2018-08-27T10:08:11.186Z,35.00
2018-08-27T10:10:43.206Z,34.20
2018-08-27T10:13:14.802Z,35.00
2018-08-27T10:15:47.589Z,34.70
2018-08-27T10:18:19.068Z,33.60
2018-08-27T10:20:51.549Z,34.10
2018-08-27T10:23:22.888Z,34.90
2018-08-27T10:25:55.088Z,34.80
2018-08-27T10:28:26.488Z,34.70
2018-08-27T10:30:58.968Z,34.00
2018-08-27T10:33:30.012Z,34.40
2018-08-27T10:36:01.649Z,34.20
2018-08-27T10:38:33.308Z,34.80
2018-08-27T10:41:05.109Z,34.60
2018-08-27T10:43:36.947Z,35.00
2018-08-27T10:46:09.029Z,34.20
2018-08-27T10:48:41.370Z,35.50
2018-08-27T10:51:13.592Z,35.50
2018-08-27T10:53:45.289Z,35.90
2018-08-27T10:56:17.108Z,35.50
2018-08-27T10:58:48.268Z,35.90
2018-08-27T11:01:20.088Z,36.20
2018-08-27T11:03:51.828Z,35.40
2018-08-27T11:06:23.549Z,36.10
2018-08-27T11:08:55.868Z,36.60
2018-08-27T11:11:27.375Z,36.70
2018-08-27T11:14:01.064Z,36.70
2018-08-27T11:16:33.051Z,37.20
2018-08-27T11:19:04.790Z,36.60
2018-08-27T11:21:36.450Z,36.70
2018-08-27T11:24:12.393Z,37.00
2018-08-27T11:26:44.983Z,36.40
2018-08-27T11:29:18.362Z,34.60
2018-08-27T11:31:51.481Z,35.00
2018-08-27T11:34:24.501Z,34.90
2018-08-27T11:36:56.481Z,34.50
2018-08-27T11:39:28.381Z,35.60
2018-08-27T11:42:00.380Z,34.70
2018-08-27T11:44:32.440Z,34.60
2018-08-27T11:47:04.843Z,35.10
2018-08-27T11:49:38.560Z,35.50
2018-08-27T11:52:11.122Z,35.80
2018-08-27T11:54:43.680Z,36.30
2018-08-27T11:57:15.102Z,35.90
2018-08-27T11:59:46.347Z,35.00
2018-08-27T12:02:18.262Z,35.50
2018-08-27T12:04:50.402Z,35.80
2018-08-27T12:07:21.620Z,34.90
2018-08-27T12:09:52.960Z,34.90
2018-08-27T12:12:24.043Z,34.40
2018-08-27T12:14:56.297Z,34.30
2018-08-27T12:17:29.017Z,34.50
2018-08-27T12:20:00.216Z,34.40
2018-08-27T12:22:31.874Z,33.70
2018-08-27T12:25:04.578Z,33.80
2018-08-27T12:27:37.036Z,34.00
2018-08-27T12:30:09.120Z,33.70
2018-08-27T12:32:41.218Z,33.20
2018-08-27T12:35:13.316Z,33.50
2018-08-27T12:37:45.391Z,34.10
2018-08-27T12:40:17.596Z,34.60
2018-08-27T12:42:48.956Z,35.10
2018-08-27T12:45:20.216Z,34.00
2018-08-27T12:47:52.376Z,34.30
2018-08-27T12:50:24.232Z,32.40
2018-08-27T12:52:56.616Z,32.80
2018-08-27T12:55:28.156Z,31.90
2018-08-27T12:58:00.096Z,31.60
2018-08-27T13:00:31.536Z,31.40
2018-08-27T13:03:03.398Z,32.10
2018-08-27T13:05:34.502Z,31.70
2018-08-27T13:08:06.025Z,31.80
2018-08-27T13:10:39.089Z,31.80
2018-08-27T13:13:10.936Z,31.40
2018-08-27T13:15:42.916Z,32.40
2018-08-27T13:18:13.857Z,31.30
2018-08-27T13:20:46.049Z,31.00
2018-08-27T13:23:17.869Z,30.40
2018-08-27T13:25:49.792Z,31.00
2018-08-27T13:28:22.106Z,30.50
2018-08-27T13:30:53.951Z,31.70
2018-08-27T13:33:25.946Z,30.70
2018-08-27T13:35:57.280Z,30.00
2018-08-27T13:38:29.762Z,29.50
2018-08-27T13:41:01.403Z,29.40
2018-08-27T13:43:32.302Z,29.80
2018-08-27T13:46:04.325Z,29.80
2018-08-27T13:48:35.980Z,29.00
2018-08-27T13:51:08.652Z,28.00
2018-08-27T13:53:40.102Z,28.40
2018-08-27T13:56:11.883Z,29.50
2018-08-27T13:58:43.603Z,28.50
2018-08-27T14:01:16.023Z,28.20
2018-08-27T14:03:47.822Z,28.70
2018-08-27T14:06:19.688Z,29.60
2018-08-27T14:08:51.522Z,28.10
2018-08-27T14:11:23.502Z,28.00
2018-08-27T14:13:54.880Z,28.60
2018-08-27T14:16:26.901Z,27.70
2018-08-27T14:18:58.774Z,28.50
2018-08-27T14:21:31.267Z,28.20
2018-08-27T14:24:02.288Z,28.40
2018-08-27T14:26:34.360Z,28.90
2018-08-27T14:29:06.137Z,28.40
2018-08-27T14:31:37.563Z,28.20
2018-08-27T14:34:08.842Z,28.70
2018-08-27T14:36:40.183Z,28.50
2018-08-27T14:39:12.884Z,28.60
2018-08-27T14:41:44.684Z,28.80
2018-08-27T14:44:16.264Z,28.80
2018-08-27T14:46:47.831Z,29.10
2018-08-27T14:49:19.712Z,29.50
2018-08-27T14:51:51.531Z,29.40
2018-08-27T14:54:24.015Z,29.60
2018-08-27T14:56:56.476Z,30.00
2018-08-27T14:59:30.077Z,30.70
2018-08-27T15:02:02.180Z,31.20
2018-08-27T15:04:33.245Z,31.40
2018-08-27T15:07:04.815Z,31.80
2018-08-27T15:09:37.033Z,31.90
2018-08-27T15:12:09.240Z,31.60
2018-08-27T15:14:41.102Z,31.50
2018-08-27T15:17:13.381Z,31.90
2018-08-27T15:19:45.300Z,32.10
2018-08-27T15:22:17.320Z,32.30
2018-08-27T15:24:48.046Z,31.30
2018-08-27T15:27:20.055Z,31.30
2018-08-27T15:29:51.840Z,31.50
2018-08-27T15:32:24.219Z,31.80
2018-08-27T15:34:56.118Z,31.50
2018-08-27T15:37:28.147Z,31.60
2018-08-27T15:39:59.598Z,31.50
2018-08-27T15:42:31.279Z,31.00
2018-08-27T15:45:08.437Z,31.30
2018-08-27T15:47:40.960Z,32.10
2018-08-27T15:50:12.610Z,32.30
2018-08-27T15:52:45.060Z,32.10
2018-08-27T15:55:16.277Z,31.70
2018-08-27T15:57:47.927Z,32.00
2018-08-27T16:00:18.972Z,32.10
2018-08-27T16:02:50.012Z,32.90
2018-08-27T16:05:21.292Z,33.00
2018-08-27T16:07:53.458Z,32.90
2018-08-27T16:10:25.335Z,32.60
2018-08-27T16:12:56.981Z,33.20
2018-08-27T16:15:28.713Z,33.60
2018-08-27T16:18:00.586Z,34.20
2018-08-27T16:20:32.281Z,34.30
2018-08-27T16:23:05.177Z,34.70
2018-08-27T16:25:36.766Z,34.30
2018-08-27T16:28:07.592Z,34.40
2018-08-27T16:30:39.123Z,39.70
2018-08-27T16:33:10.501Z,40.80
2018-08-27T16:35:42.243Z,41.40
2018-08-27T16:38:14.076Z,42.00
2018-08-27T16:40:45.941Z,41.80
2018-08-27T16:43:18.221Z,42.50
2018-08-27T16:45:50.061Z,42.00
2018-08-27T16:48:21.841Z,42.70
2018-08-27T16:50:54.262Z,42.60
2018-08-27T16:53:27.184Z,42.30
2018-08-27T16:55:58.870Z,42.80
2018-08-27T16:58:31.227Z,42.90
2018-08-27T17:01:04.181Z,42.40
2018-08-27T17:03:35.964Z,43.10
2018-08-27T17:06:09.583Z,43.50
2018-08-27T17:08:40.942Z,43.40
2018-08-27T17:11:12.205Z,43.80
2018-08-27T17:13:44.122Z,43.80
2018-08-27T17:16:16.842Z,43.80
2018-08-27T17:18:47.922Z,43.70
2018-08-27T17:21:19.965Z,43.70
2018-08-27T17:23:52.523Z,43.60
2018-08-27T17:26:24.602Z,43.80
2018-08-27T17:28:56.141Z,44.20
2018-08-27T17:31:28.569Z,44.20
2018-08-27T17:34:00.204Z,44.10
2018-08-27T17:36:32.603Z,44.30
2018-08-27T17:39:04.181Z,44.80
2018-08-27T17:41:36.728Z,45.10
2018-08-27T17:44:09.191Z,45.20
2018-08-27T17:46:41.881Z,45.30
2018-08-27T17:49:13.442Z,45.20
2018-08-27T17:51:45.601Z,45.40
2018-08-27T17:54:18.381Z,45.80
2018-08-27T17:56:51.521Z,45.40
2018-08-27T17:59:23.042Z,45.50
2018-08-27T18:01:55.122Z,45.80
2018-08-27T18:04:27.320Z,45.30
2018-08-27T18:06:59.041Z,45.10
2018-08-27T18:09:31.883Z,45.10
2018-08-27T18:12:03.128Z,45.00
2018-08-27T18:14:34.063Z,44.80
2018-08-27T18:17:05.444Z,44.90
2018-08-27T18:19:36.740Z,45.00
2018-08-27T18:22:09.092Z,45.80
2018-08-27T18:24:40.850Z,46.80
2018-08-27T18:27:12.591Z,46.80
2018-08-27T18:29:44.432Z,46.20
2018-08-27T18:32:15.730Z,46.60
2018-08-27T18:34:47.281Z,46.80
2018-08-27T18:37:19.529Z,46.30
2018-08-27T18:39:51.570Z,45.60
2018-08-27T18:42:23.489Z,46.30
2018-08-27T18:44:56.138Z,46.30
2018-08-27T18:47:27.549Z,46.50
2018-08-27T18:49:59.970Z,46.00
2018-08-27T18:52:31.789Z,45.60
2018-08-27T18:55:03.770Z,45.10
2018-08-27T18:57:35.532Z,44.80
2018-08-27T19:00:07.729Z,44.70
2018-08-27T19:02:40.518Z,44.40
2018-08-27T19:05:12.830Z,44.40
2018-08-27T19:07:44.829Z,44.70
2018-08-27T19:10:16.149Z,45.00
2018-08-27T19:12:48.513Z,45.30
2018-08-27T19:15:19.649Z,45.80
2018-08-27T19:17:51.502Z,46.20
2018-08-27T19:20:23.948Z,46.20
2018-08-27T19:22:55.835Z,46.20
2018-08-27T19:25:27.334Z,46.10
2018-08-27T19:27:59.074Z,46.50
2018-08-27T19:30:31.235Z,46.60
2018-08-27T19:33:03.116Z,47.20
2018-08-27T19:35:35.622Z,47.60
2018-08-27T19:38:07.415Z,48.50
2018-08-27T19:40:39.194Z,48.70
2018-08-27T19:43:11.227Z,49.20
2018-08-27T19:45:43.722Z,49.00
2018-08-27T19:48:15.378Z,49.70
2018-08-27T19:50:46.879Z,49.70
2018-08-27T19:53:19.254Z,49.90
2018-08-27T19:55:50.914Z,49.80
2018-08-27T19:58:23.055Z,49.60
2018-08-27T20:00:55.834Z,49.50
2018-08-27T20:03:27.513Z,49.20
2018-08-27T20:05:59.174Z,48.80
2018-08-27T20:08:30.876Z,49.50
2018-08-27T20:11:03.114Z,49.10
2018-08-27T20:13:36.381Z,49.20
2018-08-27T20:16:09.315Z,48.60
2018-08-27T20:18:41.216Z,48.70
2018-08-27T20:21:12.498Z,48.50
2018-08-27T20:23:45.435Z,49.70
2018-08-27T20:26:18.196Z,49.40
2018-08-27T20:28:50.425Z,48.70
2018-08-27T20:31:22.734Z,48.30
2018-08-27T20:33:54.355Z,48.20
2018-08-27T20:36:26.949Z,48.20
2018-08-27T20:38:59.536Z,48.10
2018-08-27T20:41:31.455Z,48.50
2018-08-27T20:44:04.996Z,48.50
2018-08-27T20:46:36.916Z,48.30
2018-08-27T20:49:07.875Z,49.10
2018-08-27T20:51:39.816Z,49.10
2018-08-27T20:54:13.455Z,50.10
2018-08-27T20:56:46.154Z,49.80
2018-08-27T20:59:19.095Z,49.80
2018-08-27T21:01:50.556Z,50.00
2018-08-27T21:04:23.032Z,50.80
2018-08-27T21:06:54.834Z,50.60
2018-08-27T21:09:26.984Z,51.50
2018-08-27T21:11:58.557Z,51.10
2018-08-27T21:15:09.296Z,51.70
2018-08-27T21:17:42.975Z,51.30
2018-08-27T21:20:15.536Z,51.90
2018-08-27T21:22:47.722Z,51.70
2018-08-27T21:25:20.210Z,51.70
2018-08-27T21:27:52.328Z,51.60
2018-08-27T21:30:24.368Z,52.90
2018-08-27T21:32:55.790Z,53.20
2018-08-27T21:35:28.051Z,52.60
2018-08-27T21:38:01.043Z,53.60
2018-08-27T21:40:32.469Z,53.70
2018-08-27T21:43:04.687Z,53.40
2018-08-27T21:45:36.512Z,53.80
2018-08-27T21:48:08.367Z,54.60
2018-08-27T21:50:39.528Z,54.10
2018-08-27T21:53:11.130Z,54.30
2018-08-27T21:55:43.029Z,53.80
2018-08-27T21:58:14.868Z,53.80
2018-08-27T22:00:50.892Z,54.00
2018-08-27T22:03:27.428Z,53.70
2018-08-27T22:05:59.027Z,53.90
2018-08-27T22:08:31.511Z,54.20
2018-08-27T22:11:03.167Z,54.80
2018-08-27T22:13:34.867Z,55.10
2018-08-27T22:16:06.630Z,55.40
2018-08-27T22:18:38.447Z,55.70
2018-08-27T22:21:09.708Z,55.70
2018-08-27T22:23:41.808Z,56.00
2018-08-27T22:26:13.468Z,55.90
2018-08-27T22:28:45.468Z,56.20
2018-08-27T22:31:16.707Z,56.40
2018-08-27T22:33:48.968Z,56.70
2018-08-27T22:36:20.148Z,57.10
2018-08-27T22:38:52.152Z,57.30
2018-08-27T22:41:23.930Z,57.40
2018-08-27T22:43:56.607Z,57.40
2018-08-27T22:46:28.008Z,57.10
2018-08-27T22:48:59.647Z,57.30
2018-08-27T22:51:31.129Z,58.20
2018-08-27T22:54:02.270Z,57.90
2018-08-27T22:56:34.108Z,58.00
2018-08-27T22:59:06.028Z,58.10
2018-08-27T23:01:37.770Z,57.90
2018-08-27T23:04:12.887Z,57.80
2018-08-27T23:06:44.708Z,57.20
2018-08-27T23:09:17.947Z,57.20
2018-08-27T23:11:50.008Z,57.30
2018-08-27T23:14:21.927Z,57.30
2018-08-27T23:16:53.489Z,57.60
2018-08-27T23:19:25.367Z,57.70
2018-08-27T23:21:56.928Z,57.30
2018-08-27T23:24:29.167Z,57.10
2018-08-27T23:27:01.132Z,56.80
2018-08-27T23:29:33.588Z,55.80
2018-08-27T23:32:05.752Z,55.70
2018-08-27T23:34:37.287Z,55.30
2018-08-27T23:37:09.367Z,55.80
2018-08-27T23:39:41.002Z,56.40
2018-08-27T23:42:13.548Z,56.80
2018-08-27T23:44:45.368Z,57.00
2018-08-27T23:47:17.387Z,57.20
2018-08-27T23:49:49.287Z,57.30
2018-08-27T23:52:21.147Z,56.80
2018-08-27T23:54:54.128Z,56.60
2018-08-27T23:57:25.907Z,56.50
2018-08-27T23:59:57.748Z,55.50
